Independence — WDF3297 — position and weather

sailwx.info

Track history (hours):
 
Tides and Currents Weather Stations Pressure Air Temp Water Temp Dewpoint Dewpoint Depression Visibility Wind Speed Wind Dir Waves Ship Positions

Independence

Owner: American Cruise Lines Inc., Delmar, DE. More information available from US FCC via Universal Licensing System and Coast Guard Vessel Documentation Center.

Last reported at 2017-Aug-19 07:29 UTC. Time now 2017-Aug-19 07:39 UTC.
Position N 43°39' W 070°15'.

Length 65 m; draft 2.5 m.

Type: Passenger vessel. MMSI: 367438210.

Date/timePositionNaut miles runAvg speedWind from/ knotsBaromVisibWave heightAir tempDewpointWater temp
2017-Aug-19 07:29N 43°39' W 070°15'0 0.0
2017-Aug-19 06:59N 43°39' W 070°15'0 0.0
2017-Aug-19 06:29N 43°39' W 070°15'0 0.0
2017-Aug-19 05:59N 43°39' W 070°15'0 0.0
2017-Aug-19 05:29N 43°39' W 070°15'0 0.0
2017-Aug-19 04:59N 43°39' W 070°15'0 0.0
2017-Aug-19 04:29N 43°39' W 070°15'0 0.0
2017-Aug-19 03:59N 43°39' W 070°15'0 0.0
2017-Aug-19 03:26N 43°39' W 070°15'0 0.0
2017-Aug-19 02:59N 43°39' W 070°15'0 0.0
2017-Aug-19 02:29N 43°39' W 070°15'0 0.0
2017-Aug-19 01:59N 43°39' W 070°15'0 0.0
2017-Aug-19 01:29N 43°39' W 070°15'0 0.0
2017-Aug-19 00:59N 43°39' W 070°15'0 0.0
2017-Aug-19 00:29N 43°39' W 070°15'0 0.0
2017-Aug-18 23:59N 43°39' W 070°15'0 0.0
2017-Aug-18 23:29N 43°39' W 070°15'0 0.0
2017-Aug-18 22:59N 43°39' W 070°15'58 1.6
2017-Aug-17 11:28N 44°06' W 069°03'3 0.5
2017-Aug-17 06:23N 44°06' W 069°06'2 0.1
2017-Aug-15 22:18N 44°06' W 069°03'3 7.2
2017-Aug-15 21:52N 44°08' W 069°01'3 7.5
2017-Aug-15 21:27N 44°11' W 069°02'1 1.3
2017-Aug-15 20:52N 44°12' W 069°03'0 0.0
2017-Aug-15 20:29N 44°12' W 069°03'0 0.0
2017-Aug-15 19:58N 44°12' W 069°03'0 0.0
2017-Aug-15 19:28N 44°12' W 069°03'0 0.0
2017-Aug-15 18:46N 44°12' W 069°03'0 0.0
2017-Aug-15 18:28N 44°12' W 069°03'0 0.0
2017-Aug-15 17:52N 44°12' W 069°03'0 0.0
2017-Aug-15 17:28N 44°12' W 069°03'0 0.0
2017-Aug-15 16:58N 44°12' W 069°03'0 0.0
2017-Aug-15 16:28N 44°12' W 069°03'0 0.0
2017-Aug-15 15:58N 44°12' W 069°03'0 0.0
2017-Aug-15 15:28N 44°12' W 069°03'0 0.0
2017-Aug-15 14:58N 44°12' W 069°03'0 0.0
2017-Aug-15 14:19N 44°12' W 069°03'0 0.0
2017-Aug-15 14:00N 44°12' W 069°03'0 0.0
2017-Aug-15 13:30N 44°12' W 069°03'0 0.1
2017-Aug-15 12:46N 44°12' W 069°03'2 5.2
2017-Aug-15 12:24N 44°11' W 069°01'2 3.7
2017-Aug-15 11:54N 44°12' W 069°01'  
2017-Aug-11 23:56N 43°39' W 070°15'0 0.0
2017-Aug-11 23:30N 43°39' W 070°15'0 0.0
2017-Aug-11 23:00N 43°39' W 070°15'0 0.0
2017-Aug-11 22:30N 43°39' W 070°15'0 0.0
2017-Aug-11 22:00N 43°39' W 070°15'0 0.0
2017-Aug-11 21:30N 43°39' W 070°15'0 0.0
2017-Aug-11 21:00N 43°39' W 070°15'0 0.0
2017-Aug-11 20:30N 43°39' W 070°15'2 3.2
2017-Aug-11 20:00N 43°39' W 070°13'5 9.0
2017-Aug-11 19:30N 43°38' W 070°07'510.0
2017-Aug-11 19:00N 43°39' W 069°60'510.2
2017-Aug-11 18:30N 43°40' W 069°53'610.1
2017-Aug-11 17:56N 43°43' W 069°46'  
2017-Aug-09 13:06N 44°06' W 069°06'0 0.0
2017-Aug-09 13:00N 44°06' W 069°06'0 0.0
2017-Aug-09 09:08N 44°06' W 069°06'  
Track history (hours):
 
Tides and Currents Weather Stations Pressure Air Temp Water Temp Dewpoint Dewpoint Depression Visibility Wind Speed Wind Dir Waves Ship Positions

Independence

Owner: American Cruise Lines Inc., Delmar, DE. More information available from US FCC via Universal Licensing System and Coast Guard Vessel Documentation Center.

Last reported at 2017-Aug-19 07:29 UTC. Time now 2017-Aug-19 07:39 UTC.
Position N 43°39' W 070°15'.

Length 65 m; draft 2.5 m.

Type: Passenger vessel. MMSI: 367438210.

Date/timePositionNaut miles runAvg speedWind from/ knotsBaromVisibWave heightAir tempDewpointWater temp
2017-Aug-19 07:29N 43°39' W 070°15'0 0.0
2017-Aug-19 06:59N 43°39' W 070°15'0 0.0
2017-Aug-19 06:29N 43°39' W 070°15'0 0.0
2017-Aug-19 05:59N 43°39' W 070°15'0 0.0
2017-Aug-19 05:29N 43°39' W 070°15'0 0.0
2017-Aug-19 04:59N 43°39' W 070°15'0 0.0
2017-Aug-19 04:29N 43°39' W 070°15'0 0.0
2017-Aug-19 03:59N 43°39' W 070°15'0 0.0
2017-Aug-19 03:26N 43°39' W 070°15'0 0.0
2017-Aug-19 02:59N 43°39' W 070°15'0 0.0
2017-Aug-19 02:29N 43°39' W 070°15'0 0.0
2017-Aug-19 01:59N 43°39' W 070°15'0 0.0
2017-Aug-19 01:29N 43°39' W 070°15'0 0.0
2017-Aug-19 00:59N 43°39' W 070°15'0 0.0
2017-Aug-19 00:29N 43°39' W 070°15'0 0.0
2017-Aug-18 23:59N 43°39' W 070°15'0 0.0
2017-Aug-18 23:29N 43°39' W 070°15'0 0.0
2017-Aug-18 22:59N 43°39' W 070°15'58 1.6
2017-Aug-17 11:28N 44°06' W 069°03'3 0.5
2017-Aug-17 06:23N 44°06' W 069°06'2 0.1
2017-Aug-15 22:18N 44°06' W 069°03'3 7.2
2017-Aug-15 21:52N 44°08' W 069°01'3 7.5
2017-Aug-15 21:27N 44°11' W 069°02'1 1.3
2017-Aug-15 20:52N 44°12' W 069°03'0 0.0
2017-Aug-15 20:29N 44°12' W 069°03'0 0.0
2017-Aug-15 19:58N 44°12' W 069°03'0 0.0
2017-Aug-15 19:28N 44°12' W 069°03'0 0.0
2017-Aug-15 18:46N 44°12' W 069°03'0 0.0
2017-Aug-15 18:28N 44°12' W 069°03'0 0.0
2017-Aug-15 17:52N 44°12' W 069°03'0 0.0
2017-Aug-15 17:28N 44°12' W 069°03'0 0.0
2017-Aug-15 16:58N 44°12' W 069°03'0 0.0
2017-Aug-15 16:28N 44°12' W 069°03'0 0.0
2017-Aug-15 15:58N 44°12' W 069°03'0 0.0
2017-Aug-15 15:28N 44°12' W 069°03'0 0.0
2017-Aug-15 14:58N 44°12' W 069°03'0 0.0
2017-Aug-15 14:19N 44°12' W 069°03'0 0.0
2017-Aug-15 14:00N 44°12' W 069°03'0 0.0
2017-Aug-15 13:30N 44°12' W 069°03'0 0.1
2017-Aug-15 12:46N 44°12' W 069°03'2 5.2
2017-Aug-15 12:24N 44°11' W 069°01'2 3.7
2017-Aug-15 11:54N 44°12' W 069°01'  
2017-Aug-11 23:56N 43°39' W 070°15'0 0.0
2017-Aug-11 23:30N 43°39' W 070°15'0 0.0
2017-Aug-11 23:00N 43°39' W 070°15'0 0.0
2017-Aug-11 22:30N 43°39' W 070°15'0 0.0
2017-Aug-11 22:00N 43°39' W 070°15'0 0.0
2017-Aug-11 21:30N 43°39' W 070°15'0 0.0
2017-Aug-11 21:00N 43°39' W 070°15'0 0.0
2017-Aug-11 20:30N 43°39' W 070°15'2 3.2
2017-Aug-11 20:00N 43°39' W 070°13'5 9.0
2017-Aug-11 19:30N 43°38' W 070°07'510.0
2017-Aug-11 19:00N 43°39' W 069°60'510.2
2017-Aug-11 18:30N 43°40' W 069°53'610.1
2017-Aug-11 17:56N 43°43' W 069°46'  
2017-Aug-09 13:06N 44°06' W 069°06'0 0.0
2017-Aug-09 13:00N 44°06' W 069°06'0 0.0
2017-Aug-09 09:08N 44°06' W 069°06'  

Dump ship's entire track history